createdAt,value
2018-05-16T00:01:21.892Z,64.50
2018-05-16T00:02:21.339Z,64.76
2018-05-16T00:04:17.266Z,64.59
2018-05-16T00:05:17.294Z,64.95
2018-05-16T00:07:15.232Z,64.79
2018-05-16T00:08:15.230Z,65.43
2018-05-16T00:10:13.173Z,65.05
2018-05-16T00:11:13.179Z,65.23
2018-05-16T00:13:09.644Z,65.36
2018-05-16T00:14:09.146Z,65.36
2018-05-16T00:16:05.591Z,65.56
2018-05-16T00:17:05.116Z,66.80
2018-05-16T00:19:01.554Z,65.33
2018-05-16T00:20:01.049Z,65.43
2018-05-16T00:22:00.010Z,65.36
2018-05-16T00:23:00.007Z,65.36
2018-05-16T00:24:57.117Z,65.65
2018-05-16T00:25:57.139Z,65.46
2018-05-16T00:27:55.235Z,66.03
2018-05-16T00:28:56.074Z,65.72
2018-05-16T00:30:51.198Z,65.46
2018-05-16T00:31:51.681Z,65.52
2018-05-16T00:33:49.614Z,65.75
2018-05-16T00:34:49.283Z,65.72
2018-05-16T00:36:45.245Z,65.91
2018-05-16T00:37:45.251Z,66.29
2018-05-16T00:39:41.716Z,66.29
2018-05-16T00:40:41.174Z,66.03
2018-05-16T00:42:37.646Z,66.77
2018-05-16T00:43:37.146Z,66.52
2018-05-16T00:45:33.119Z,67.00
2018-05-16T00:46:33.585Z,66.71
2018-05-16T00:48:29.573Z,66.77
2018-05-16T00:49:30.033Z,67.06
2018-05-16T00:51:26.555Z,66.71
2018-05-16T00:52:25.029Z,67.06
2018-05-16T00:54:20.995Z,67.25
2018-05-16T00:55:20.995Z,68.30
2018-05-16T00:57:17.447Z,67.63
2018-05-16T00:58:16.934Z,67.83
2018-05-16T01:00:12.894Z,67.92
2018-05-16T01:01:12.894Z,68.12
2018-05-16T01:03:09.368Z,68.59
2018-05-16T01:04:08.855Z,68.98
2018-05-16T01:06:06.813Z,69.65
2018-05-16T01:07:06.797Z,69.26
2018-05-16T01:09:02.776Z,69.17
2018-05-16T01:10:02.735Z,69.65
2018-05-16T01:11:58.716Z,69.46
2018-05-16T01:12:59.230Z,69.56
2018-05-16T01:14:54.674Z,70.80
2018-05-16T01:15:54.666Z,70.70
2018-05-16T01:17:51.613Z,69.93
2018-05-16T01:18:50.603Z,70.42
2018-05-16T01:20:47.062Z,71.28
2018-05-16T01:21:46.511Z,70.90
2018-05-16T01:23:42.514Z,70.51
2018-05-16T01:24:42.479Z,70.70
2018-05-16T01:26:40.434Z,70.51
2018-05-16T01:27:41.429Z,70.70
2018-05-16T01:29:36.430Z,70.90
2018-05-16T01:30:36.393Z,70.70
2018-05-16T01:32:32.876Z,70.32
2018-05-16T01:33:32.862Z,70.13
2018-05-16T01:35:28.326Z,69.93
2018-05-16T01:36:28.316Z,70.99
2018-05-16T01:38:24.775Z,71.66
2018-05-16T01:39:24.263Z,70.80
2018-05-16T01:41:20.184Z,70.80
2018-05-16T01:42:20.212Z,70.61
2018-05-16T01:44:16.149Z,70.80
2018-05-16T01:45:16.141Z,70.55
2018-05-16T01:47:12.089Z,69.56
2018-05-16T01:48:12.100Z,69.65
2018-05-16T01:50:10.117Z,69.74
2018-05-16T01:51:10.556Z,69.56
2018-05-16T01:53:05.999Z,69.26
2018-05-16T01:54:06.026Z,70.13
2018-05-16T01:56:03.971Z,70.42
2018-05-16T01:57:04.046Z,71.95
2018-05-16T01:58:59.937Z,74.06
2018-05-16T01:59:59.917Z,75.02
2018-05-16T02:01:58.392Z,76.27
2018-05-16T02:02:58.882Z,76.65
2018-05-16T02:04:56.496Z,78.53
2018-05-16T02:05:56.126Z,80.55
2018-05-16T02:07:54.584Z,81.98
2018-05-16T02:08:54.706Z,83.76
2018-05-16T02:10:52.626Z,85.30
2018-05-16T02:11:52.166Z,86.54
2018-05-16T02:13:52.688Z,87.88
2018-05-16T02:14:52.599Z,87.84
2018-05-16T02:16:51.574Z,89.47
2018-05-16T02:17:50.710Z,90.33
2018-05-16T02:19:47.694Z,89.66
2018-05-16T02:20:48.267Z,89.95
2018-05-16T02:22:45.762Z,91.29
2018-05-16T02:23:46.626Z,92.63
2018-05-16T02:25:43.707Z,93.30
2018-05-16T02:26:44.087Z,93.11
2018-05-16T02:28:41.542Z,92.44
2018-05-16T02:29:41.574Z,92.82
2018-05-16T02:31:40.506Z,93.11
2018-05-16T02:32:40.490Z,93.30
2018-05-16T02:34:38.525Z,92.78
2018-05-16T02:35:38.588Z,93.16
2018-05-16T02:37:37.216Z,93.54
2018-05-16T02:38:37.699Z,93.26
2018-05-16T02:40:33.904Z,93.16
2018-05-16T02:41:35.327Z,93.35
2018-05-16T02:43:33.287Z,93.45
2018-05-16T02:44:32.765Z,93.07
2018-05-16T02:46:30.064Z,93.16
2018-05-16T02:47:30.044Z,93.26
2018-05-16T02:49:27.986Z,92.87
2018-05-16T02:50:27.979Z,92.97
2018-05-16T02:52:23.988Z,93.16
2018-05-16T02:53:23.931Z,92.97
2018-05-16T02:55:20.411Z,93.16
2018-05-16T02:56:20.398Z,92.40
2018-05-16T02:58:15.955Z,92.54
2018-05-16T02:59:15.838Z,93.07
2018-05-16T03:01:13.732Z,92.68
2018-05-16T03:02:13.758Z,92.58
2018-05-16T03:04:13.215Z,92.49
2018-05-16T03:05:11.881Z,92.58
2018-05-16T03:07:09.985Z,92.40
2018-05-16T03:08:10.000Z,92.06
2018-05-16T03:10:07.955Z,92.11
2018-05-16T03:11:07.933Z,91.92
2018-05-16T03:13:05.933Z,92.01
2018-05-16T03:14:06.396Z,92.11
2018-05-16T03:16:04.015Z,92.01
2018-05-16T03:17:04.827Z,92.16
2018-05-16T03:19:01.971Z,91.25
2018-05-16T03:20:01.952Z,91.30
2018-05-16T03:21:59.944Z,91.92
2018-05-16T03:22:59.863Z,91.34
2018-05-16T03:24:56.832Z,91.49
2018-05-16T03:25:55.827Z,91.25
2018-05-16T03:27:53.798Z,91.25
2018-05-16T03:28:53.836Z,91.25
2018-05-16T03:30:51.775Z,91.25
2018-05-16T03:31:52.269Z,90.96
2018-05-16T03:33:50.651Z,90.96
2018-05-16T03:34:50.149Z,91.15
2018-05-16T03:36:48.602Z,91.15
2018-05-16T03:37:48.619Z,90.67
2018-05-16T03:39:46.540Z,90.29
2018-05-16T03:40:45.593Z,90.67
2018-05-16T03:42:44.035Z,90.48
2018-05-16T03:43:43.723Z,90.67
2018-05-16T03:45:42.125Z,90.29
2018-05-16T03:46:41.619Z,90.39
2018-05-16T03:48:40.057Z,90.24
2018-05-16T03:49:39.675Z,89.81
2018-05-16T03:51:39.654Z,89.67
2018-05-16T03:52:39.569Z,89.58
2018-05-16T03:54:35.766Z,89.48
2018-05-16T03:55:36.292Z,89.48
2018-05-16T03:57:34.240Z,89.29
2018-05-16T03:58:33.710Z,89.58
2018-05-16T04:00:32.657Z,88.71
2018-05-16T04:01:32.153Z,88.81
2018-05-16T04:03:30.132Z,88.62
2018-05-16T04:04:30.634Z,88.90
2018-05-16T04:06:30.223Z,88.52
2018-05-16T04:07:31.208Z,88.43
2018-05-16T04:09:28.684Z,88.33
2018-05-16T04:10:28.165Z,88.43
2018-05-16T04:12:27.145Z,88.13
2018-05-16T04:13:26.163Z,88.52
2018-05-16T04:15:24.072Z,88.33
2018-05-16T04:16:24.582Z,88.52
2018-05-16T04:18:23.056Z,88.52
2018-05-16T04:19:22.026Z,88.52
2018-05-16T04:21:18.009Z,88.33
2018-05-16T04:22:17.929Z,88.04
2018-05-16T04:24:13.934Z,87.85
2018-05-16T04:25:13.857Z,88.23
2018-05-16T04:27:09.805Z,88.33
2018-05-16T04:28:09.801Z,87.66
2018-05-16T04:30:07.772Z,87.66
2018-05-16T04:31:07.777Z,87.85
2018-05-16T04:33:05.909Z,87.66
2018-05-16T04:34:05.881Z,87.85
2018-05-16T04:36:03.803Z,87.37
2018-05-16T04:37:03.823Z,87.56
2018-05-16T04:39:01.750Z,87.76
2018-05-16T04:40:02.363Z,87.56
2018-05-16T04:41:59.698Z,87.56
2018-05-16T04:42:59.703Z,87.90
2018-05-16T04:44:57.694Z,87.32
2018-05-16T04:45:57.658Z,87.51
2018-05-16T04:47:55.783Z,87.37
2018-05-16T04:48:56.544Z,87.99
2018-05-16T04:50:53.691Z,87.84
2018-05-16T04:51:53.723Z,87.55
2018-05-16T04:53:51.742Z,87.94
2018-05-16T04:54:52.190Z,87.84
2018-05-16T04:56:49.615Z,87.46
2018-05-16T04:57:49.626Z,87.84
2018-05-16T04:59:49.080Z,87.46
2018-05-16T05:00:47.797Z,87.55
2018-05-16T05:02:45.855Z,88.03
2018-05-16T05:03:46.618Z,87.46
2018-05-16T05:05:41.826Z,87.27
2018-05-16T05:06:41.782Z,87.37
2018-05-16T05:08:39.941Z,87.50
2018-05-16T05:09:39.941Z,87.79
2018-05-16T05:11:37.913Z,87.31
2018-05-16T05:12:37.952Z,87.41
2018-05-16T05:14:36.379Z,87.21
2018-05-16T05:15:36.002Z,87.16
2018-05-16T05:17:34.113Z,86.88
2018-05-16T05:18:34.188Z,86.83
2018-05-16T05:20:30.052Z,86.88
2018-05-16T05:21:30.018Z,87.07
2018-05-16T05:23:26.983Z,87.16
2018-05-16T05:24:27.015Z,87.35
2018-05-16T05:26:23.502Z,86.21
2018-05-16T05:27:23.877Z,87.16
2018-05-16T05:29:19.914Z,86.78
2018-05-16T05:30:18.945Z,86.25
2018-05-16T05:32:17.353Z,86.63
2018-05-16T05:33:16.849Z,86.34
2018-05-16T05:35:15.341Z,87.11
2018-05-16T05:36:14.796Z,86.63
2018-05-16T05:38:12.744Z,85.77
2018-05-16T05:39:12.736Z,85.58
2018-05-16T05:41:10.655Z,85.58
2018-05-16T05:42:11.201Z,85.58
2018-05-16T05:44:08.785Z,86.05
2018-05-16T05:45:08.811Z,85.77
2018-05-16T05:47:06.912Z,86.15
2018-05-16T05:48:06.909Z,85.38
2018-05-16T05:50:05.021Z,86.19
2018-05-16T05:51:05.010Z,86.00
2018-05-16T05:53:00.957Z,85.71
2018-05-16T05:54:00.953Z,86.10
2018-05-16T05:55:59.408Z,85.58
2018-05-16T05:56:58.918Z,85.14
2018-05-16T05:58:54.855Z,85.71
2018-05-16T05:59:54.866Z,85.42
2018-05-16T06:01:52.960Z,86.29
2018-05-16T06:02:52.989Z,85.33
2018-05-16T06:04:48.958Z,85.71
2018-05-16T06:05:48.966Z,85.71
2018-05-16T06:07:44.936Z,85.14
2018-05-16T06:08:44.893Z,84.18
2018-05-16T06:10:41.376Z,84.56
2018-05-16T06:11:40.819Z,85.14
2018-05-16T06:13:36.786Z,85.14
2018-05-16T06:14:37.292Z,84.95
2018-05-16T06:16:32.732Z,85.81
2018-05-16T06:17:32.721Z,85.62
2018-05-16T06:19:30.914Z,85.71
2018-05-16T06:20:30.851Z,85.42
2018-05-16T06:22:26.824Z,85.24
2018-05-16T06:23:27.817Z,84.85
2018-05-16T06:25:22.763Z,84.70
2018-05-16T06:26:22.770Z,84.56
2018-05-16T06:28:20.723Z,84.37
2018-05-16T06:29:20.712Z,83.89
2018-05-16T06:31:17.699Z,83.54
2018-05-16T06:32:16.642Z,83.93
2018-05-16T06:34:12.619Z,83.41
2018-05-16T06:35:12.644Z,83.51
2018-05-16T06:37:10.597Z,83.70
2018-05-16T06:38:10.568Z,83.22
2018-05-16T06:40:07.522Z,84.18
2018-05-16T06:41:07.504Z,83.41
2018-05-16T06:43:05.463Z,83.98
2018-05-16T06:44:05.980Z,84.08
2018-05-16T06:46:01.417Z,83.80
2018-05-16T06:47:01.418Z,83.41
2018-05-16T06:48:59.401Z,84.18
2018-05-16T06:49:59.387Z,83.98
2018-05-16T06:51:56.333Z,83.41
2018-05-16T06:52:57.857Z,83.22
2018-05-16T06:54:54.295Z,83.41
2018-05-16T06:55:54.304Z,83.60
2018-05-16T06:57:53.290Z,83.31
2018-05-16T06:58:52.392Z,81.78
2018-05-16T07:00:50.343Z,80.53
2018-05-16T07:01:50.326Z,80.91
2018-05-16T07:03:48.319Z,81.40
2018-05-16T07:04:48.266Z,82.16
2018-05-16T07:06:46.369Z,81.24
2018-05-16T07:07:46.379Z,81.53
2018-05-16T07:09:42.834Z,82.49
2018-05-16T07:10:42.325Z,81.82
2018-05-16T07:12:40.290Z,81.82
2018-05-16T07:13:41.294Z,81.34
2018-05-16T07:15:38.257Z,81.53
2018-05-16T07:16:38.254Z,82.01
2018-05-16T07:18:34.188Z,80.57
2018-05-16T07:19:34.199Z,80.57
2018-05-16T07:21:31.174Z,80.38
2018-05-16T07:22:30.137Z,80.19
2018-05-16T07:24:26.126Z,80.38
2018-05-16T07:25:26.099Z,79.46
2018-05-16T07:27:22.056Z,79.75
2018-05-16T07:28:22.074Z,78.84
2018-05-16T07:30:19.026Z,79.17
2018-05-16T07:31:19.025Z,79.17
2018-05-16T07:33:16.510Z,77.92
2018-05-16T07:34:16.044Z,77.63
2018-05-16T07:36:14.950Z,77.63
2018-05-16T07:37:13.944Z,78.02
2018-05-16T07:39:09.873Z,78.02
2018-05-16T07:40:10.388Z,78.06
2018-05-16T07:42:05.897Z,76.81
2018-05-16T07:43:05.851Z,77.15
2018-05-16T07:45:02.306Z,77.86
2018-05-16T07:46:01.823Z,77.86
2018-05-16T07:47:58.311Z,77.19
2018-05-16T07:48:57.807Z,77.29
2018-05-16T07:50:54.253Z,76.71
2018-05-16T07:51:55.245Z,77.19
2018-05-16T07:53:50.603Z,76.71
2018-05-16T07:54:50.198Z,77.51
2018-05-16T07:56:46.558Z,76.65
2018-05-16T07:57:46.643Z,76.07
2018-05-16T07:59:41.610Z,76.26
2018-05-16T08:00:41.642Z,74.73
2018-05-16T08:02:37.601Z,75.21
2018-05-16T08:03:37.599Z,74.44
2018-05-16T08:05:33.523Z,74.98
2018-05-16T08:06:33.544Z,76.23
2018-05-16T08:08:29.499Z,76.36
2018-05-16T08:09:29.489Z,74.54
2018-05-16T08:11:27.970Z,74.92
2018-05-16T08:12:27.591Z,73.47
2018-05-16T08:14:25.683Z,74.73
2018-05-16T08:15:25.702Z,74.44
2018-05-16T08:17:22.664Z,72.42
2018-05-16T08:18:22.653Z,73.77
2018-05-16T08:20:17.667Z,72.07
2018-05-16T08:21:17.639Z,72.84
2018-05-16T08:23:13.612Z,71.88
2018-05-16T08:24:13.620Z,73.51
2018-05-16T08:26:09.552Z,74.38
2018-05-16T08:27:09.573Z,73.71
2018-05-16T08:29:06.060Z,73.16
2018-05-16T08:30:05.547Z,72.01
2018-05-16T08:32:02.505Z,72.01
2018-05-16T08:33:01.542Z,72.78
2018-05-16T08:34:57.569Z,70.37
2018-05-16T08:35:57.565Z,70.18
2018-05-16T08:37:53.553Z,70.66
2018-05-16T08:38:53.532Z,70.28
2018-05-16T08:40:49.505Z,69.51
2018-05-16T08:41:49.451Z,68.35
2018-05-16T08:43:45.440Z,69.12
2018-05-16T08:46:01.358Z,67.77
2018-05-16T08:47:01.371Z,67.97
2018-05-16T08:48:57.846Z,64.89
2018-05-16T08:49:56.821Z,64.92
2018-05-16T08:51:54.776Z,64.82
2018-05-16T08:52:54.775Z,64.53
2018-05-16T08:54:51.267Z,63.60
2018-05-16T08:55:50.742Z,61.87
2018-05-16T08:57:47.706Z,61.45
2018-05-16T08:58:46.773Z,62.03
2018-05-16T09:00:43.188Z,61.93
2018-05-16T09:01:43.188Z,62.06
2018-05-16T09:03:40.801Z,60.23
2018-05-16T09:04:41.660Z,60.80
2018-05-16T09:06:36.757Z,61.48
2018-05-16T09:07:37.254Z,59.94
2018-05-16T09:09:32.691Z,59.45
2018-05-16T09:10:33.265Z,59.45
2018-05-16T09:12:28.680Z,60.80
2018-05-16T09:13:28.680Z,59.04
2018-05-16T09:15:24.633Z,60.00
2018-05-16T09:16:24.655Z,59.43
2018-05-16T09:18:21.098Z,60.58
2018-05-16T09:19:20.616Z,62.22
2018-05-16T09:21:16.591Z,60.68
2018-05-16T09:22:16.554Z,60.58
2018-05-16T09:24:12.571Z,59.33
2018-05-16T09:25:12.612Z,60.10
2018-05-16T09:27:08.987Z,59.23
2018-05-16T09:28:08.469Z,59.81
2018-05-16T09:30:06.453Z,59.43
2018-05-16T09:31:06.439Z,60.58
2018-05-16T09:33:04.381Z,58.75
2018-05-16T09:34:04.407Z,59.27
2018-05-16T09:36:01.381Z,60.00
2018-05-16T09:37:00.858Z,60.77
2018-05-16T09:38:56.305Z,60.20
2018-05-16T09:39:56.846Z,61.25
2018-05-16T09:41:53.340Z,60.58
2018-05-16T09:42:53.282Z,60.30
2018-05-16T09:44:48.267Z,60.58
2018-05-16T09:45:48.468Z,60.30
2018-05-16T09:47:44.253Z,58.27
2018-05-16T09:48:44.193Z,58.85
2018-05-16T09:50:41.152Z,59.81
2018-05-16T09:51:40.133Z,60.58
2018-05-16T09:53:36.121Z,60.87
2018-05-16T09:54:36.112Z,60.39
2018-05-16T09:56:32.165Z,61.45
2018-05-16T09:57:32.072Z,61.10
2018-05-16T09:59:29.019Z,61.87
2018-05-16T10:00:29.452Z,62.45
2018-05-16T10:02:23.966Z,60.42
2018-05-16T10:03:23.955Z,59.36
2018-05-16T10:05:19.947Z,60.13
2018-05-16T10:06:19.913Z,60.42
2018-05-16T10:08:15.925Z,60.61
2018-05-16T10:09:15.897Z,60.32
2018-05-16T10:11:11.834Z,58.78
2018-05-16T10:12:11.847Z,58.59
2018-05-16T10:14:07.824Z,58.69
2018-05-16T10:15:07.807Z,58.59
2018-05-16T10:17:03.898Z,58.04
2018-05-16T10:18:03.837Z,56.21
2018-05-16T10:20:00.353Z,56.30
2018-05-16T10:21:00.797Z,56.11
2018-05-16T10:22:55.757Z,55.73
2018-05-16T10:23:55.769Z,56.01
2018-05-16T10:25:52.737Z,54.76
2018-05-16T10:26:52.765Z,55.05
2018-05-16T10:28:48.713Z,56.11
2018-05-16T10:29:48.748Z,56.76
2018-05-16T10:31:46.737Z,58.01
2018-05-16T10:32:46.677Z,58.30
2018-05-16T10:34:44.146Z,59.91
2018-05-16T10:35:43.676Z,60.39
2018-05-16T10:37:39.671Z,61.45
2018-05-16T10:38:39.633Z,60.39
2018-05-16T10:40:36.614Z,60.68
2018-05-16T10:41:35.690Z,60.36
2018-05-16T10:43:31.562Z,61.83
2018-05-16T10:44:31.574Z,61.07
2018-05-16T10:46:27.537Z,60.58
2018-05-16T10:47:28.459Z,61.25
2018-05-16T10:49:23.516Z,60.77
2018-05-16T10:50:24.017Z,60.77
2018-05-16T10:52:23.966Z,61.22
2018-05-16T10:53:23.976Z,61.04
2018-05-16T10:55:21.940Z,61.32
2018-05-16T10:56:21.972Z,61.90
2018-05-16T10:58:19.411Z,62.77
2018-05-16T10:59:17.906Z,62.57
2018-05-16T11:01:16.367Z,62.77
2018-05-16T11:02:16.359Z,62.09
2018-05-16T11:04:12.786Z,62.48
2018-05-16T11:05:11.802Z,62.60
2018-05-16T11:07:08.768Z,61.07
2018-05-16T11:08:07.765Z,62.51
2018-05-16T11:10:03.739Z,62.12
2018-05-16T11:11:03.729Z,61.65
2018-05-16T11:12:59.715Z,61.83
2018-05-16T11:13:59.731Z,61.45
2018-05-16T11:15:56.615Z,60.20
2018-05-16T11:16:55.681Z,60.30
2018-05-16T11:18:51.635Z,60.49
2018-05-16T11:19:51.653Z,60.20
2018-05-16T11:21:47.610Z,61.00
2018-05-16T11:22:47.586Z,61.77
2018-05-16T11:24:46.585Z,59.65
2018-05-16T11:25:46.684Z,59.17
2018-05-16T11:27:42.556Z,57.89
2018-05-16T11:28:43.535Z,58.08
2018-05-16T11:30:38.556Z,59.17
2018-05-16T11:31:38.536Z,59.07
2018-05-16T11:33:37.542Z,57.34
2018-05-16T11:34:36.656Z,57.53
2018-05-16T11:36:34.939Z,56.11
2018-05-16T11:37:34.800Z,56.79
2018-05-16T11:39:30.782Z,56.43
2018-05-16T11:40:30.775Z,55.66
2018-05-16T11:42:26.807Z,56.33
2018-05-16T11:43:26.734Z,55.27
2018-05-16T11:45:22.756Z,55.24
2018-05-16T11:46:22.704Z,56.49
2018-05-16T11:48:19.676Z,56.69
2018-05-16T11:49:18.717Z,57.07
2018-05-16T11:51:15.627Z,56.40
2018-05-16T11:52:15.733Z,57.24
2018-05-16T11:54:13.571Z,57.14
2018-05-16T11:55:13.571Z,56.95
2018-05-16T11:57:11.589Z,57.34
2018-05-16T11:58:12.034Z,57.24
2018-05-16T12:00:09.022Z,56.79
2018-05-16T12:01:07.544Z,56.11
2018-05-16T12:03:03.480Z,55.94
2018-05-16T12:04:03.495Z,56.14
2018-05-16T12:05:59.940Z,55.27
2018-05-16T12:06:59.460Z,55.36
2018-05-16T12:08:57.573Z,55.08
2018-05-16T12:09:57.555Z,55.66
2018-05-16T12:11:53.551Z,54.79
2018-05-16T12:12:53.549Z,54.98
2018-05-16T12:14:50.061Z,55.56
2018-05-16T12:15:50.493Z,54.98
2018-05-16T12:17:46.399Z,55.01
2018-05-16T12:18:45.473Z,55.20
2018-05-16T12:20:41.924Z,55.68
2018-05-16T12:21:41.484Z,54.88
2018-05-16T12:23:37.384Z,54.14
2018-05-16T12:24:37.362Z,53.37
2018-05-16T12:26:35.494Z,53.44
2018-05-16T12:27:35.473Z,53.73
2018-05-16T12:29:32.958Z,53.05
2018-05-16T12:30:31.439Z,53.15
2018-05-16T12:32:28.409Z,54.79
2018-05-16T12:33:27.417Z,54.79
2018-05-16T12:35:24.366Z,54.91
2018-05-16T12:36:23.452Z,55.62
2018-05-16T12:38:19.859Z,52.98
2018-05-16T12:39:19.354Z,53.08
2018-05-16T12:41:19.856Z,53.85
2018-05-16T12:42:19.789Z,54.24
2018-05-16T12:44:15.737Z,54.24
2018-05-16T12:45:15.729Z,54.33
2018-05-16T12:47:11.714Z,52.69
2018-05-16T12:48:12.205Z,52.98
2018-05-16T12:50:10.197Z,54.79
2018-05-16T12:51:09.805Z,54.72
2018-05-16T12:53:05.785Z,53.05
2018-05-16T12:54:05.776Z,53.41
2018-05-16T12:56:01.711Z,54.38
2018-05-16T12:57:01.761Z,54.86
2018-05-16T12:58:56.301Z,55.44
2018-05-16T12:59:56.310Z,55.05
2018-05-16T13:01:52.276Z,54.47
2018-05-16T13:02:52.289Z,55.73
2018-05-16T13:04:48.275Z,56.59
2018-05-16T13:05:48.750Z,55.15
2018-05-16T13:07:44.705Z,54.96
2018-05-16T13:08:44.194Z,56.30
2018-05-16T13:10:40.154Z,56.69
2018-05-16T13:11:41.646Z,56.40
2018-05-16T13:13:37.080Z,59.84
2018-05-16T13:14:36.104Z,65.63
2018-05-16T13:16:33.077Z,70.44
2018-05-16T13:17:32.070Z,68.90
2018-05-16T13:19:30.036Z,73.49
2018-05-16T13:20:30.042Z,75.61
2018-05-16T13:22:26.025Z,74.55
2018-05-16T13:23:25.986Z,76.38
2018-05-16T13:25:23.996Z,75.96
2018-05-16T13:26:23.987Z,76.82
2018-05-16T13:28:21.899Z,79.33
2018-05-16T13:29:21.918Z,80.92
2018-05-16T13:31:18.380Z,76.88
2018-05-16T13:32:17.845Z,77.36
2018-05-16T13:34:13.828Z,78.90
2018-05-16T13:35:14.288Z,79.00
2018-05-16T13:37:11.791Z,78.00
2018-05-16T13:38:11.774Z,78.09
2018-05-16T13:40:09.767Z,78.96
2018-05-16T13:41:09.728Z,78.28
2018-05-16T13:43:07.844Z,79.25
2018-05-16T13:44:07.864Z,79.73
2018-05-16T13:46:04.395Z,81.46
2018-05-16T13:47:03.849Z,80.88
2018-05-16T13:49:01.922Z,82.81
2018-05-16T13:50:02.779Z,77.71
2018-05-16T13:52:00.309Z,77.19
2018-05-16T13:53:01.284Z,77.58
2018-05-16T13:55:01.223Z,79.69
2018-05-16T13:56:01.256Z,78.34
2018-05-16T13:58:00.817Z,77.96
2018-05-16T13:59:01.776Z,78.06
2018-05-16T14:01:00.363Z,78.15
2018-05-16T14:01:59.239Z,78.53
2018-05-16T14:03:56.703Z,79.98
2018-05-16T14:04:56.721Z,79.40
2018-05-16T14:06:54.690Z,78.06
2018-05-16T14:07:54.649Z,77.38
2018-05-16T14:09:53.094Z,78.83
2018-05-16T14:10:54.627Z,78.53
2018-05-16T14:12:51.608Z,77.96
2018-05-16T14:13:51.646Z,79.50
2018-05-16T14:15:55.250Z,80.36
2018-05-16T14:16:56.196Z,79.60
2018-05-16T14:18:53.199Z,82.67
2018-05-16T14:19:53.184Z,83.06
2018-05-16T14:21:49.127Z,83.34
2018-05-16T14:22:49.127Z,81.99
2018-05-16T14:24:48.642Z,82.19
2018-05-16T14:25:47.262Z,82.38
2018-05-16T14:27:49.257Z,78.15
2018-05-16T14:28:49.714Z,81.23
2018-05-16T14:30:44.657Z,80.75
2018-05-16T14:31:44.658Z,80.94
2018-05-16T14:33:44.647Z,82.76
2018-05-16T14:34:42.799Z,82.04
2018-05-16T14:36:43.263Z,80.88
2018-05-16T14:37:43.241Z,80.40
2018-05-16T14:39:39.754Z,76.84
2018-05-16T14:40:39.712Z,76.84
2018-05-16T14:42:35.243Z,77.23
2018-05-16T14:43:35.208Z,77.90
2018-05-16T14:45:34.223Z,78.19
2018-05-16T14:46:34.179Z,76.75
2018-05-16T14:48:32.875Z,77.56
2018-05-16T14:49:32.213Z,78.33
2018-05-16T14:51:28.347Z,76.69
2018-05-16T14:52:27.182Z,74.13
2018-05-16T14:54:25.687Z,75.86
2018-05-16T14:55:25.668Z,74.61
2018-05-16T14:57:25.750Z,73.74
2018-05-16T14:58:26.096Z,71.76
2018-05-16T15:00:23.565Z,71.81
2018-05-16T15:01:22.100Z,73.01
2018-05-16T15:03:17.499Z,73.39
2018-05-16T15:04:18.009Z,70.41
2018-05-16T15:06:17.467Z,70.50
2018-05-16T15:07:15.499Z,70.60
2018-05-16T15:09:15.487Z,71.47
2018-05-16T15:10:13.606Z,70.83
2018-05-16T15:12:12.085Z,69.45
2018-05-16T15:13:11.570Z,68.68
2018-05-16T15:15:09.511Z,68.48
2018-05-16T15:16:09.571Z,67.13
2018-05-16T15:18:09.999Z,67.55
2018-05-16T15:19:07.641Z,67.65
2018-05-16T15:21:06.101Z,68.42
2018-05-16T15:22:05.596Z,66.97
2018-05-16T15:24:04.078Z,67.07
2018-05-16T15:25:04.044Z,67.16
2018-05-16T15:27:01.997Z,68.04
2018-05-16T15:28:01.465Z,67.16
2018-05-16T15:29:57.956Z,66.39
2018-05-16T15:30:57.413Z,66.97
2018-05-16T15:32:53.907Z,66.78
2018-05-16T15:33:53.367Z,68.90
2018-05-16T15:35:49.852Z,66.49
2018-05-16T15:36:49.351Z,66.69
2018-05-16T15:38:47.344Z,65.88
2018-05-16T15:39:47.388Z,65.01
2018-05-16T15:41:44.817Z,67.42
2018-05-16T15:42:45.868Z,68.68
2018-05-16T15:44:43.247Z,69.35
2018-05-16T15:45:42.411Z,68.68
2018-05-16T15:47:40.406Z,69.93
2018-05-16T15:48:40.387Z,70.70
2018-05-16T15:50:37.340Z,71.81
2018-05-16T15:51:36.350Z,72.20
2018-05-16T15:53:32.352Z,73.16
2018-05-16T15:54:32.325Z,72.39
2018-05-16T15:56:29.294Z,72.78
2018-05-16T15:57:28.790Z,73.36
2018-05-16T15:59:25.311Z,73.80
2018-05-16T16:00:24.764Z,74.96
2018-05-16T16:02:24.221Z,73.71
2018-05-16T16:03:22.334Z,72.65
2018-05-16T16:05:18.307Z,72.36
2018-05-16T16:06:18.323Z,72.45
2018-05-16T16:08:14.394Z,72.84
2018-05-16T16:09:14.273Z,73.61
2018-05-16T16:11:10.251Z,73.51
2018-05-16T16:12:10.196Z,75.63
2018-05-16T16:14:09.156Z,75.73
2018-05-16T16:15:08.385Z,76.01
2018-05-16T16:17:04.339Z,75.63
2018-05-16T16:18:04.295Z,75.82
2018-05-16T16:20:03.250Z,75.54
2018-05-16T16:21:03.260Z,75.82
2018-05-16T16:23:01.922Z,75.34
2018-05-16T16:24:00.578Z,75.24
2018-05-16T16:26:01.039Z,75.05
2018-05-16T16:27:01.019Z,75.15
2018-05-16T16:28:59.507Z,75.15
2018-05-16T16:29:59.023Z,75.34
2018-05-16T16:31:54.921Z,75.24
2018-05-16T16:32:54.973Z,75.24
2018-05-16T16:34:52.914Z,75.28
2018-05-16T16:35:52.900Z,75.57
2018-05-16T16:37:48.862Z,75.28
2018-05-16T16:38:49.463Z,74.99
2018-05-16T16:40:47.315Z,75.15
2018-05-16T16:41:46.776Z,75.67
2018-05-16T16:43:43.772Z,75.44
2018-05-16T16:44:42.800Z,74.86
2018-05-16T16:46:41.712Z,75.38
2018-05-16T16:47:40.879Z,75.19
2018-05-16T16:49:40.769Z,75.57
2018-05-16T16:50:38.879Z,75.86
2018-05-16T16:52:36.756Z,75.38
2018-05-16T16:53:34.813Z,75.57
2018-05-16T16:55:30.787Z,77.21
2018-05-16T16:56:30.794Z,78.27
2018-05-16T16:58:27.678Z,78.46
2018-05-16T16:59:26.731Z,78.75
2018-05-16T17:01:22.694Z,78.81
2018-05-16T17:02:22.635Z,79.10
2018-05-16T17:04:21.124Z,79.67
2018-05-16T17:05:20.618Z,79.25
2018-05-16T17:07:16.566Z,79.05
2018-05-16T17:08:16.547Z,78.67
2018-05-16T17:10:16.031Z,80.40
2018-05-16T17:11:14.537Z,80.69
2018-05-16T17:13:12.461Z,80.50
2018-05-16T17:14:13.506Z,81.07
2018-05-16T17:16:11.476Z,81.17
2018-05-16T17:17:10.596Z,81.27
2018-05-16T17:19:10.083Z,80.27
2018-05-16T17:20:08.777Z,80.27
2018-05-16T17:22:21.726Z,84.59
2018-05-16T17:23:06.603Z,88.87
2018-05-16T17:25:02.652Z,88.55
2018-05-16T17:26:02.796Z,86.68
2018-05-16T17:28:02.651Z,83.72
2018-05-16T17:29:02.118Z,83.63
2018-05-16T17:30:58.033Z,82.00
2018-05-16T17:31:58.030Z,81.43
2018-05-16T17:33:54.026Z,81.43
2018-05-16T17:34:53.987Z,81.38
2018-05-16T17:36:51.021Z,80.81
2018-05-16T17:37:49.957Z,80.90
2018-05-16T17:39:45.923Z,80.96
2018-05-16T17:40:46.002Z,80.67
2018-05-16T17:42:43.388Z,80.96
2018-05-16T17:43:42.907Z,79.91
2018-05-16T17:45:37.904Z,80.06
2018-05-16T17:46:37.866Z,79.58
2018-05-16T17:48:35.752Z,79.58
2018-05-16T17:49:33.834Z,80.25
2018-05-16T17:51:30.295Z,80.25
2018-05-16T17:52:29.737Z,80.54
2018-05-16T17:54:25.757Z,79.64
2018-05-16T17:55:25.720Z,79.96
2018-05-16T17:57:22.198Z,80.16
2018-05-16T17:58:21.675Z,79.73
2018-05-16T18:00:17.611Z,79.73
2018-05-16T18:01:17.612Z,79.35
2018-05-16T18:03:13.587Z,79.64
2018-05-16T18:04:13.605Z,79.64
2018-05-16T18:06:09.525Z,80.02
2018-05-16T18:07:09.530Z,80.59
2018-05-16T18:09:06.477Z,80.25
2018-05-16T18:10:05.497Z,80.16
2018-05-16T18:12:01.458Z,80.25
2018-05-16T18:13:01.452Z,80.40
2018-05-16T18:14:57.397Z,79.64
2018-05-16T18:15:57.899Z,79.54
2018-05-16T18:17:51.923Z,79.83
2018-05-16T18:18:51.847Z,80.30
2018-05-16T18:20:49.352Z,80.21
2018-05-16T18:21:47.759Z,80.79
2018-05-16T18:23:44.207Z,80.98
2018-05-16T18:24:43.687Z,81.11
2018-05-16T18:26:39.654Z,80.82
2018-05-16T18:27:39.635Z,80.92
2018-05-16T18:29:36.105Z,81.21
2018-05-16T18:30:35.601Z,81.11
2018-05-16T18:32:30.554Z,80.50
2018-05-16T18:33:30.042Z,80.82
2018-05-16T18:35:24.995Z,81.02
2018-05-16T18:36:24.479Z,81.02
2018-05-16T18:38:21.852Z,80.35
2018-05-16T18:39:20.444Z,80.44
2018-05-16T18:41:18.396Z,80.54
2018-05-16T18:42:16.421Z,80.54
2018-05-16T18:44:12.825Z,80.44
2018-05-16T18:45:12.308Z,80.35
2018-05-16T18:47:08.336Z,80.02
2018-05-16T18:48:08.762Z,79.83
2018-05-16T18:50:04.252Z,79.73
2018-05-16T18:51:04.725Z,79.73
2018-05-16T18:53:00.153Z,79.77
2018-05-16T18:54:00.153Z,79.87
2018-05-16T18:55:56.152Z,79.35
2018-05-16T18:56:56.095Z,78.87
2018-05-16T18:58:52.068Z,78.87
2018-05-16T18:59:52.054Z,79.44